Time;durP1;ratioP1;P1;durP2;ratioP2;P2;SDS_P1;SDS_P2;PMS_P1;PMS_P2;Temp;Humidity;BMP_temperature;BMP_pressure;BME280_temperature;BME280_humidity;BME280_pressure;Samples;Min_cycle;Max_cycle;Signal;HPM_P1;HPM_P2
2023/07/15 00:00:46;;;;;;;10.45;2.05;;;14.60;99.90;;;;;;4916272;29;20036;-90
2023/07/15 00:03:13;;;;;;;4.05;1.00;;;14.50;99.90;;;;;;4918863;29;20028;-91
2023/07/15 00:05:41;;;;;;;7.13;1.38;;;14.50;99.90;;;;;;4907718;29;20614;-90
2023/07/15 00:08:08;;;;;;;6.50;0.93;;;14.40;99.90;;;;;;4919544;29;20032;-92
2023/07/15 00:10:36;;;;;;;8.13;1.27;;;14.40;99.90;;;;;;4920024;29;20031;-91
2023/07/15 00:13:02;;;;;;;5.00;1.25;;;14.40;99.90;;;;;;4919534;29;20024;-92
2023/07/15 00:15:28;;;;;;;6.28;1.05;;;14.30;99.90;;;;;;4919775;29;20068;-90
2023/07/15 00:17:54;;;;;;;6.97;1.42;;;14.30;99.90;;;;;;4919381;29;20065;-91
2023/07/15 00:20:20;;;;;;;6.10;1.45;;;14.30;99.90;;;;;;4919370;29;20036;-92
2023/07/15 00:22:47;;;;;;;8.13;1.17;;;14.30;99.90;;;;;;4919610;29;20032;-91
2023/07/15 00:25:20;;;;;;;6.00;1.45;;;14.30;99.90;;;;;;4919519;29;20120;-90
2023/07/15 00:27:47;;;;;;;4.40;1.40;;;14.20;99.90;;;;;;4919934;29;20024;-90
2023/07/15 00:30:15;;;;;;;7.93;1.50;;;14.20;99.90;;;;;;4916133;29;20408;-91
2023/07/15 00:32:42;;;;;;;4.93;1.50;;;14.20;99.90;;;;;;4911971;29;20029;-91
2023/07/15 00:35:21;;;;;;;9.40;1.42;;;14.20;99.90;;;;;;4908562;29;20087;-92
2023/07/15 00:37:47;;;;;;;9.85;2.13;;;14.10;99.90;;;;;;4906169;29;20169;-91
2023/07/15 00:40:14;;;;;;;9.43;1.30;;;14.10;99.90;;;;;;4917561;29;20027;-93
2023/07/15 00:43:18;;;;;;;5.03;1.35;;;14.10;99.90;;;;;;4916828;29;20036;-92
2023/07/15 00:46:04;;;;;;;4.65;1.23;;;14.10;99.90;;;;;;4916599;29;20083;-92
2023/07/15 00:48:32;;;;;;;9.43;1.65;;;14.10;99.90;;;;;;4926732;29;20147;-90
2023/07/15 00:50:58;;;;;;;7.13;1.25;;;14.10;99.90;;;;;;4923497;29;20075;-92
2023/07/15 00:53:26;;;;;;;8.90;1.63;;;14.10;99.90;;;;;;4918494;29;20043;-93
2023/07/15 00:55:53;;;;;;;11.57;1.60;;;14.10;99.90;;;;;;4916059;29;20490;-91
2023/07/15 00:58:19;;;;;;;4.80;1.40;;;14.00;99.90;;;;;;4918576;29;20111;-92
2023/07/15 01:00:45;;;;;;;9.20;1.95;;;14.10;99.90;;;;;;4918716;29;20058;-94
2023/07/15 01:03:10;;;;;;;6.72;1.65;;;14.10;99.90;;;;;;4918446;29;20048;-92
2023/07/15 01:05:38;;;;;;;5.32;1.10;;;14.00;99.90;;;;;;4920848;29;20023;-92
2023/07/15 01:08:04;;;;;;;7.85;1.67;;;14.00;99.90;;;;;;4918480;29;20514;-92
2023/07/15 01:10:29;;;;;;;7.28;1.70;;;14.00;99.90;;;;;;4918341;29;20136;-92
2023/07/15 01:12:55;;;;;;;7.25;1.83;;;14.00;99.90;;;;;;4918510;29;20032;-92
2023/07/15 01:15:20;;;;;;;6.13;1.63;;;14.00;99.90;;;;;;4918379;29;20047;-92
2023/07/15 01:17:46;;;;;;;6.55;1.65;;;14.00;99.90;;;;;;4918618;29;20119;-91
2023/07/15 01:20:12;;;;;;;8.15;2.25;;;14.00;99.90;;;;;;4918883;29;20028;-91
2023/07/15 01:22:39;;;;;;;12.95;2.10;;;14.00;99.90;;;;;;4937525;29;20016;-90
2023/07/15 01:25:06;;;;;;;11.23;2.45;;;14.00;99.90;;;;;;4937390;29;20084;-92
2023/07/15 01:27:31;;;;;;;4.57;2.78;;;14.00;99.90;;;;;;4929510;29;20020;-92
2023/07/15 01:29:57;;;;;;;9.68;2.00;;;14.00;99.90;;;;;;4922739;29;20047;-93
2023/07/15 01:32:23;;;;;;;10.48;2.10;;;14.00;99.90;;;;;;4918087;29;20020;-92
2023/07/15 01:34:48;;;;;;;9.02;2.03;;;14.00;99.90;;;;;;4917859;29;20036;-93
2023/07/15 01:37:14;;;;;;;6.88;2.22;;;14.00;99.90;;;;;;4917952;29;20035;-94
2023/07/15 01:39:40;;;;;;;17.40;2.30;;;14.00;99.90;;;;;;4917924;29;20103;-92
2023/07/15 01:42:06;;;;;;;8.32;2.35;;;14.00;99.90;;;;;;4917829;29;20032;-92
2023/07/15 01:44:31;;;;;;;11.82;2.20;;;14.00;99.90;;;;;;4917645;29;20027;-94
2023/07/15 01:46:57;;;;;;;8.38;1.90;;;14.00;99.90;;;;;;4917892;29;20028;-92
2023/07/15 01:49:23;;;;;;;12.95;2.45;;;14.00;99.90;;;;;;4917853;29;20116;-92
2023/07/15 01:51:49;;;;;;;11.65;2.35;;;14.00;99.90;;;;;;4896510;29;20060;-92
2023/07/15 01:54:15;;;;;;;5.40;2.15;;;14.00;99.90;;;;;;4917615;29;20139;-93
2023/07/15 01:56:41;;;;;;;10.88;1.92;;;14.00;99.90;;;;;;4918469;29;20115;-92
2023/07/15 01:59:07;;;;;;;10.63;2.70;;;14.00;99.90;;;;;;4917272;29;20529;-92
2023/07/15 02:01:33;;;;;;;7.60;2.00;;;14.00;99.90;;;;;;4914664;29;20036;-92
2023/07/15 02:03:59;;;;;;;10.45;2.40;;;14.00;99.90;;;;;;4917325;29;20028;-92
2023/07/15 02:06:25;;;;;;;7.28;2.20;;;13.90;99.90;;;;;;4917587;29;20470;-92
2023/07/15 02:08:51;;;;;;;6.65;1.98;;;13.90;99.90;;;;;;4917394;29;20027;-94
2023/07/15 02:11:16;;;;;;;14.65;2.53;;;13.90;99.90;;;;;;4919282;29;20020;-91
2023/07/15 02:13:43;;;;;;;6.43;2.10;;;13.90;99.90;;;;;;4922650;29;20036;-90
2023/07/15 02:16:09;;;;;;;10.18;2.40;;;13.80;99.90;;;;;;4918882;29;20040;-94
2023/07/15 02:18:35;;;;;;;11.43;2.95;;;13.90;99.90;;;;;;4920152;29;20402;-94
2023/07/15 02:21:01;;;;;;;14.43;3.30;;;13.80;99.90;;;;;;4918589;29;20034;-94
2023/07/15 02:23:28;;;;;;;8.55;2.13;;;13.90;99.90;;;;;;4918224;29;20084;-93
2023/07/15 02:25:53;;;;;;;9.20;2.78;;;13.90;99.90;;;;;;4925701;29;20475;-95
2023/07/15 02:28:21;;;;;;;14.02;2.65;;;13.90;99.90;;;;;;4916920;29;20029;-94
2023/07/15 02:30:46;;;;;;;8.25;3.00;;;13.90;99.90;;;;;;4917182;29;20020;-92
2023/07/15 02:33:12;;;;;;;14.27;2.90;;;13.90;99.90;;;;;;4917136;29;20055;-92
2023/07/15 02:35:40;;;;;;;14.05;3.22;;;13.90;99.90;;;;;;4917382;29;20398;-93
2023/07/15 02:38:05;;;;;;;12.57;2.47;;;13.90;99.90;;;;;;4917338;29;20028;-93
2023/07/15 02:40:31;;;;;;;15.88;3.28;;;14.00;99.90;;;;;;4896154;29;20024;-93
2023/07/15 02:42:58;;;;;;;11.25;2.92;;;14.00;99.90;;;;;;4921186;29;20051;-93
2023/07/15 02:45:23;;;;;;;15.05;3.17;;;14.00;99.90;;;;;;4922071;29;20064;-93
2023/07/15 02:47:49;;;;;;;15.10;3.17;;;14.00;99.90;;;;;;4927298;29;20036;-93
2023/07/15 02:50:15;;;;;;;15.38;2.83;;;14.00;99.90;;;;;;4926039;29;20028;-93
2023/07/15 02:52:42;;;;;;;12.65;2.83;;;14.00;99.90;;;;;;4924151;29;20072;-93
2023/07/15 02:55:08;;;;;;;11.13;2.50;;;14.10;99.90;;;;;;4924087;29;20032;-93
2023/07/15 02:57:34;;;;;;;7.82;2.70;;;14.00;99.90;;;;;;4906710;29;20145;-93
2023/07/15 03:00:00;;;;;;;19.77;3.50;;;14.10;99.90;;;;;;4936931;29;20028;-91
2023/07/15 03:02:28;;;;;;;10.82;3.13;;;14.10;99.90;;;;;;4938056;29;20055;-93
2023/07/15 03:04:54;;;;;;;12.95;3.13;;;14.10;99.90;;;;;;4934845;29;20032;-93
2023/07/15 03:07:20;;;;;;;10.85;2.08;;;14.10;99.90;;;;;;4923612;29;20071;-94
2023/07/15 03:09:46;;;;;;;12.70;2.67;;;14.10;99.90;;;;;;4918342;29;20072;-92
2023/07/15 03:12:12;;;;;;;8.77;2.70;;;14.10;99.90;;;;;;4919808;29;20370;-92
2023/07/15 03:14:38;;;;;;;10.68;2.00;;;14.10;99.90;;;;;;4920837;29;20031;-92
2023/07/15 03:17:04;;;;;;;5.55;2.25;;;14.10;99.90;;;;;;4916927;29;20068;-92
2023/07/15 03:19:32;;;;;;;7.38;2.35;;;14.10;99.90;;;;;;4917216;29;20033;-92
2023/07/15 03:21:58;;;;;;;9.77;2.28;;;14.10;99.90;;;;;;4914773;29;20028;-92
2023/07/15 03:24:25;;;;;;;5.10;2.20;;;14.10;99.90;;;;;;4917180;29;20383;-93
2023/07/15 03:26:52;;;;;;;8.23;2.13;;;14.10;99.90;;;;;;4917467;29;20043;-91
2023/07/15 03:29:17;;;;;;;13.25;2.53;;;14.10;99.90;;;;;;4916121;29;20024;-93
2023/07/15 03:31:43;;;;;;;8.55;2.08;;;14.10;99.90;;;;;;4916064;29;20051;-93
2023/07/15 03:34:11;;;;;;;8.65;2.47;;;14.10;99.90;;;;;;4916094;29;20034;-93
2023/07/15 03:36:37;;;;;;;8.65;2.00;;;14.10;99.90;;;;;;4912849;29;20044;-93
2023/07/15 03:39:05;;;;;;;6.38;1.67;;;14.10;99.90;;;;;;4915753;29;20036;-93
2023/07/15 03:41:31;;;;;;;14.90;2.42;;;14.10;99.90;;;;;;4914479;29;20087;-93
2023/07/15 03:43:57;;;;;;;11.15;2.55;;;14.10;99.90;;;;;;4914615;29;20028;-93
2023/07/15 03:46:23;;;;;;;10.75;2.30;;;14.10;99.90;;;;;;4917044;29;20047;-93
2023/07/15 03:48:49;;;;;;;14.55;2.20;;;14.10;99.90;;;;;;4917004;29;20083;-94
2023/07/15 03:51:15;;;;;;;10.82;2.20;;;14.10;99.90;;;;;;4916076;29;20111;-91
2023/07/15 03:53:41;;;;;;;9.63;1.95;;;14.10;99.90;;;;;;4915517;29;20139;-93
2023/07/15 03:56:06;;;;;;;6.13;2.15;;;14.10;99.90;;;;;;4915542;29;20036;-94
2023/07/15 03:58:32;;;;;;;9.48;2.10;;;14.10;99.90;;;;;;4916979;29;20035;-93
2023/07/15 04:00:58;;;;;;;9.70;2.38;;;14.10;99.90;;;;;;4916132;29;20036;-93
2023/07/15 04:03:25;;;;;;;6.97;2.10;;;14.10;99.90;;;;;;4915784;29;20028;-93
2023/07/15 04:05:51;;;;;;;5.95;2.05;;;14.10;99.90;;;;;;4914937;29;20025;-95
2023/07/15 04:08:16;;;;;;;8.07;1.92;;;14.20;99.90;;;;;;4915574;29;20031;-93
2023/07/15 04:10:45;;;;;;;7.13;2.15;;;14.20;99.90;;;;;;4913378;29;20470;-93
2023/07/15 04:13:11;;;;;;;17.58;3.25;;;14.20;99.90;;;;;;4916567;29;20083;-91
2023/07/15 04:15:37;;;;;;;6.88;2.13;;;14.20;99.90;;;;;;4917742;29;20032;-93
2023/07/15 04:18:02;;;;;;;7.97;2.13;;;14.20;99.90;;;;;;4918099;29;20039;-91
2023/07/15 04:20:28;;;;;;;13.73;2.47;;;14.20;99.90;;;;;;4915807;29;20498;-93
2023/07/15 04:22:53;;;;;;;11.82;2.60;;;14.20;99.90;;;;;;4915896;29;20367;-92
2023/07/15 04:25:19;;;;;;;10.07;2.83;;;14.10;99.90;;;;;;4915869;29;20035;-92
2023/07/15 04:27:45;;;;;;;8.05;2.03;;;14.10;99.90;;;;;;4915400;29;20032;-94
2023/07/15 04:30:11;;;;;;;12.18;2.72;;;14.10;99.90;;;;;;4915463;29;20025;-94
2023/07/15 04:32:37;;;;;;;11.00;2.20;;;14.10;99.90;;;;;;4913041;29;20060;-92
2023/07/15 04:35:03;;;;;;;8.32;1.98;;;14.10;99.90;;;;;;4916509;29;20032;-91
2023/07/15 04:37:30;;;;;;;8.75;2.03;;;14.10;99.90;;;;;;4926165;29;20020;-88
2023/07/15 04:39:55;;;;;;;10.43;2.65;;;14.20;99.90;;;;;;4937210;29;20046;-92
2023/07/15 04:42:21;;;;;;;12.93;2.30;;;14.20;99.90;;;;;;4935579;29;20024;-93
2023/07/15 04:44:47;;;;;;;10.18;2.28;;;14.20;99.90;;;;;;4915860;29;20021;-91
2023/07/15 04:47:13;;;;;;;10.48;2.65;;;14.20;99.90;;;;;;4915156;29;20024;-92
2023/07/15 04:49:38;;;;;;;10.27;3.75;;;14.20;99.90;;;;;;4918214;29;20032;-92
2023/07/15 04:52:04;;;;;;;9.30;2.17;;;14.20;99.90;;;;;;4919035;29;20030;-90
2023/07/15 04:54:30;;;;;;;10.00;1.92;;;14.20;99.90;;;;;;4918957;29;20055;-92
2023/07/15 04:56:56;;;;;;;6.00;2.25;;;14.20;99.90;;;;;;4923260;29;20043;-92
2023/07/15 04:59:22;;;;;;;5.75;2.13;;;14.20;99.90;;;;;;4921393;29;20020;-91
2023/07/15 05:01:48;;;;;;;12.25;2.20;;;14.20;99.90;;;;;;4919101;29;20062;-93
2023/07/15 05:04:14;;;;;;;7.10;2.17;;;14.30;99.90;;;;;;4918591;29;20043;-91
2023/07/15 05:06:40;;;;;;;9.55;2.30;;;14.30;99.90;;;;;;4918451;29;20119;-91
2023/07/15 05:09:05;;;;;;;9.40;2.60;;;14.30;99.90;;;;;;4918262;29;20530;-92
2023/07/15 05:11:31;;;;;;;7.13;1.85;;;14.30;99.90;;;;;;4918453;29;20032;-91
2023/07/15 05:13:57;;;;;;;8.38;2.15;;;14.30;99.90;;;;;;4918433;29;20036;-94
2023/07/15 05:16:22;;;;;;;6.15;1.90;;;14.30;99.90;;;;;;4919443;29;20036;-92
2023/07/15 05:18:48;;;;;;;8.45;1.88;;;14.30;99.90;;;;;;4918399;29;20423;-92
2023/07/15 05:21:14;;;;;;;7.25;2.13;;;14.30;99.90;;;;;;4918050;29;20028;-91
2023/07/15 05:23:40;;;;;;;8.00;2.20;;;14.40;99.90;;;;;;4918287;29;20056;-92
2023/07/15 05:26:05;;;;;;;10.05;2.88;;;14.40;99.90;;;;;;4917963;29;20423;-92
2023/07/15 05:28:32;;;;;;;11.77;2.10;;;14.40;99.90;;;;;;4918160;29;20063;-93
2023/07/15 05:31:00;;;;;;;6.60;1.73;;;14.40;99.90;;;;;;4916960;29;20111;-91
2023/07/15 05:33:25;;;;;;;7.60;2.13;;;14.50;99.90;;;;;;4917907;29;20136;-92
2023/07/15 05:35:51;;;;;;;9.00;2.00;;;14.50;99.90;;;;;;4917832;29;20161;-92
2023/07/15 05:38:17;;;;;;;5.15;1.38;;;14.40;99.90;;;;;;4915274;29;20485;-93
2023/07/15 05:40:42;;;;;;;4.70;1.90;;;14.40;99.90;;;;;;4918116;29;20080;-91
2023/07/15 05:43:09;;;;;;;11.98;2.42;;;14.40;99.90;;;;;;4918405;29;20398;-91
2023/07/15 05:45:34;;;;;;;12.63;2.50;;;14.40;99.90;;;;;;4919590;29;20064;-91
2023/07/15 05:48:00;;;;;;;9.57;2.20;;;14.40;99.90;;;;;;4923375;29;20032;-93
2023/07/15 05:50:26;;;;;;;10.80;2.08;;;14.40;99.90;;;;;;4926422;29;20039;-93
2023/07/15 05:52:53;;;;;;;7.05;2.30;;;14.40;99.90;;;;;;4932092;29;20043;-89
2023/07/15 05:55:19;;;;;;;6.45;2.10;;;14.40;99.90;;;;;;4932031;29;20035;-90
2023/07/15 05:57:45;;;;;;;7.82;2.15;;;14.40;99.90;;;;;;4932324;29;20028;-92
2023/07/15 06:00:11;;;;;;;5.70;1.88;;;14.40;99.90;;;;;;4925469;29;20115;-92
2023/07/15 06:02:38;;;;;;;7.75;2.45;;;14.40;99.90;;;;;;4924203;29;20039;-93
2023/07/15 06:05:04;;;;;;;13.68;2.42;;;14.40;99.90;;;;;;4922904;29;20032;-91
2023/07/15 06:07:30;;;;;;;8.93;2.45;;;14.40;99.90;;;;;;4920934;29;20063;-91
2023/07/15 06:09:56;;;;;;;13.93;2.45;;;14.40;99.90;;;;;;4919091;29;20091;-91
2023/07/15 06:12:22;;;;;;;11.68;2.45;;;14.40;99.90;;;;;;4920556;29;20035;-93
2023/07/15 06:14:48;;;;;;;14.40;2.83;;;14.40;99.90;;;;;;4933589;29;20024;-88
2023/07/15 06:17:14;;;;;;;10.93;2.45;;;14.40;99.90;;;;;;4940813;29;20028;-89
2023/07/15 06:19:40;;;;;;;8.63;2.88;;;14.50;99.90;;;;;;4940133;29;20039;-92
2023/07/15 06:22:05;;;;;;;9.60;3.00;;;14.50;99.90;;;;;;4922429;29;20382;-92
2023/07/15 06:24:31;;;;;;;17.17;3.17;;;14.50;99.90;;;;;;4915902;29;20550;-91
2023/07/15 06:26:57;;;;;;;11.25;2.75;;;14.50;99.90;;;;;;4914461;29;20043;-92
2023/07/15 06:29:24;;;;;;;12.43;2.60;;;14.50;99.90;;;;;;4914783;29;20431;-94
2023/07/15 06:31:50;;;;;;;12.32;2.75;;;14.50;99.90;;;;;;4914168;29;20397;-92
2023/07/15 06:34:16;;;;;;;11.93;2.70;;;14.50;99.90;;;;;;4911420;29;20036;-92
2023/07/15 06:36:42;;;;;;;15.10;2.58;;;14.60;99.90;;;;;;4917700;29;20038;-93
2023/07/15 06:39:08;;;;;;;8.80;2.80;;;14.60;99.90;;;;;;4918860;29;20494;-92
2023/07/15 06:41:33;;;;;;;14.07;2.60;;;14.70;99.90;;;;;;4918475;29;20043;-92
2023/07/15 06:43:59;;;;;;;18.15;3.08;;;14.70;99.90;;;;;;4917360;29;20111;-93
2023/07/15 06:46:25;;;;;;;9.40;2.50;;;14.80;99.90;;;;;;4915310;29;20115;-93
2023/07/15 06:48:51;;;;;;;11.48;2.30;;;14.80;99.90;;;;;;4916133;29;20031;-93
2023/07/15 06:51:18;;;;;;;15.38;3.15;;;14.90;99.90;;;;;;4916180;29;20058;-93
2023/07/15 06:53:43;;;;;;;13.00;2.80;;;14.90;99.90;;;;;;4912440;29;20082;-91
2023/07/15 06:56:10;;;;;;;14.57;2.92;;;15.00;99.90;;;;;;4912740;29;20435;-93
2023/07/15 06:58:35;;;;;;;12.65;2.70;;;15.00;99.90;;;;;;4911978;29;20020;-91
2023/07/15 07:01:01;;;;;;;11.77;2.70;;;15.10;99.90;;;;;;4915320;29;20024;-94
2023/07/15 07:03:27;;;;;;;10.15;2.22;;;15.10;99.90;;;;;;4911888;29;20390;-92
2023/07/15 07:05:53;;;;;;;6.93;2.83;;;15.20;99.90;;;;;;4915091;29;20031;-93
2023/07/15 07:08:22;;;;;;;9.77;2.40;;;15.30;99.90;;;;;;4919455;29;20035;-93
2023/07/15 07:10:53;;;;;;;13.70;2.60;;;15.30;99.90;;;;;;4909716;29;20025;-92
2023/07/15 07:13:19;;;;;;;;;;;15.40;99.90;;;;;;4912253;29;20040;-93
2023/07/15 07:15:45;;;;;;;10.07;2.53;;;15.40;99.90;;;;;;4916709;29;20017;-93
2023/07/15 07:18:11;;;;;;;14.48;3.20;;;15.40;99.90;;;;;;4916706;29;20032;-96
2023/07/15 07:20:38;;;;;;;11.98;3.38;;;15.40;99.90;;;;;;4916461;29;20021;-93
2023/07/15 07:23:04;;;;;;;13.70;2.88;;;15.40;99.90;;;;;;4917249;29;20039;-93
2023/07/15 07:25:29;;;;;;;9.65;2.25;;;15.30;99.90;;;;;;4916391;29;20489;-92
2023/07/15 07:27:55;;;;;;;12.27;2.85;;;15.30;99.90;;;;;;4915900;29;20036;-93
2023/07/15 07:30:21;;;;;;;12.93;2.47;;;15.30;99.90;;;;;;4913442;29;20025;-92
2023/07/15 07:32:46;;;;;;;10.70;2.85;;;15.30;99.90;;;;;;4915647;29;20044;-95
2023/07/15 07:35:12;;;;;;;15.32;2.70;;;15.30;99.90;;;;;;4915661;29;20114;-92
2023/07/15 07:37:38;;;;;;;11.90;2.60;;;15.20;99.90;;;;;;4914214;29;20452;-92
2023/07/15 07:40:04;;;;;;;12.65;2.83;;;15.20;99.90;;;;;;4915936;29;20035;-92
2023/07/15 07:42:30;;;;;;;8.90;2.95;;;15.10;99.90;;;;;;4912823;29;20126;-93
2023/07/15 07:44:55;;;;;;;12.85;2.40;;;15.10;99.90;;;;;;4914651;29;20074;-93
2023/07/15 07:47:21;;;;;;;10.27;2.70;;;15.10;99.90;;;;;;4916472;29;20053;-94
2023/07/15 07:49:47;;;;;;;12.70;2.78;;;15.10;99.90;;;;;;4915419;29;20024;-93
2023/07/15 07:52:12;;;;;;;9.50;2.38;;;15.20;99.90;;;;;;4916311;29;20031;-93
2023/07/15 07:54:39;;;;;;;15.90;2.40;;;15.20;99.90;;;;;;4919285;29;20052;-92
2023/07/15 07:57:05;;;;;;;15.32;2.63;;;15.40;99.90;;;;;;4929356;29;20265;-92
2023/07/15 07:59:31;;;;;;;10.82;2.38;;;15.40;99.90;;;;;;4924412;29;20017;-92
2023/07/15 08:01:56;;;;;;;8.50;2.40;;;15.50;99.90;;;;;;4918255;29;20187;-93
2023/07/15 08:04:22;;;;;;;14.75;2.60;;;15.60;99.90;;;;;;4915611;29;20445;-94
2023/07/15 08:06:48;;;;;;;7.10;2.58;;;15.70;99.90;;;;;;4915824;29;20435;-93
2023/07/15 08:09:14;;;;;;;7.93;2.30;;;15.80;99.90;;;;;;4913955;29;20021;-94
2023/07/15 08:11:42;;;;;;;13.90;2.70;;;15.80;99.90;;;;;;4914625;29;20483;-92
2023/07/15 08:14:08;;;;;;;11.68;2.78;;;15.80;99.90;;;;;;4915878;29;20024;-92
2023/07/15 08:16:38;;;;;;;12.52;2.17;;;15.90;99.90;;;;;;4915589;29;20028;-91
2023/07/15 08:19:06;;;;;;;9.90;2.22;;;15.90;99.90;;;;;;4914563;29;20024;-93
2023/07/15 08:21:32;;;;;;;10.38;2.30;;;15.90;99.90;;;;;;4916336;29;20055;-92
2023/07/15 08:23:58;;;;;;;9.35;1.83;;;16.00;99.90;;;;;;4920646;29;20028;-91
2023/07/15 08:26:24;;;;;;;6.70;2.00;;;16.10;99.90;;;;;;4920379;29;20482;-90
2023/07/15 08:28:50;;;;;;;14.98;3.10;;;16.20;99.90;;;;;;4919323;29;20115;-93
2023/07/15 08:31:16;;;;;;;9.82;1.85;;;16.30;99.90;;;;;;4918557;29;20090;-92
2023/07/15 08:33:42;;;;;;;4.07;1.75;;;16.40;99.90;;;;;;4918229;29;20096;-90
2023/07/15 08:36:08;;;;;;;7.97;2.05;;;16.40;99.90;;;;;;4918502;29;20175;-90
2023/07/15 08:38:33;;;;;;;7.32;2.10;;;16.40;99.90;;;;;;4919052;29;20029;-90
2023/07/15 08:41:01;;;;;;;7.38;1.50;;;16.50;99.90;;;;;;4918970;29;20410;-90
2023/07/15 08:43:32;;;;;;;9.93;2.03;;;16.60;99.90;;;;;;4918728;29;20017;-90
2023/07/15 08:46:00;;;;;;;7.35;2.30;;;16.50;99.90;;;;;;4916685;29;20036;-92
2023/07/15 08:48:27;;;;;;;7.50;1.95;;;16.50;99.90;;;;;;4919224;29;20529;-93
2023/07/15 08:50:56;;;;;;;8.05;2.30;;;16.50;99.90;;;;;;4919075;29;20126;-91
2023/07/15 08:53:26;;;;;;;12.55;2.05;;;16.40;99.90;;;;;;4920086;29;20047;-89
2023/07/15 08:55:55;;;;;;;6.25;2.42;;;16.40;99.90;;;;;;4923114;29;20024;-91
2023/07/15 08:58:21;;;;;;;8.30;2.00;;;16.40;99.90;;;;;;4924635;29;20036;-91
2023/07/15 09:00:48;;;;;;;9.48;2.03;;;16.40;99.90;;;;;;4925953;29;20032;-91
2023/07/15 09:03:14;;;;;;;7.15;2.15;;;16.40;99.90;;;;;;4924103;29;20039;-91
2023/07/15 09:05:39;;;;;;;6.18;1.90;;;16.40;99.90;;;;;;4924277;29;20044;-90
2023/07/15 09:08:18;;;;;;;8.43;1.88;;;16.30;99.90;;;;;;4921112;29;20466;-91
2023/07/15 09:10:57;;;;;;;8.15;2.47;;;16.30;99.90;;;;;;4920252;29;20054;-90
2023/07/15 09:13:32;;;;;;;7.25;1.58;;;16.20;99.90;;;;;;4919554;29;20536;-89
2023/07/15 09:15:59;;;;;;;12.50;2.08;;;16.10;99.90;;;;;;4918082;29;20040;-90
2023/07/15 09:18:24;;;;;;;5.05;1.05;;;16.00;99.90;;;;;;4920142;29;20020;-91
2023/07/15 09:20:51;;;;;;;3.53;1.10;;;15.80;99.90;;;;;;4918825;29;20046;-92
2023/07/15 09:23:18;;;;;;;5.57;0.85;;;15.70;99.90;;;;;;4918825;29;20026;-89
2023/07/15 09:25:52;;;;;;;1.55;0.88;;;15.40;99.90;;;;;;4918663;29;20509;-90
2023/07/15 09:28:19;;;;;;;4.30;1.20;;;15.20;99.90;;;;;;4921551;29;20024;-93
2023/07/15 09:30:45;;;;;;;4.70;1.40;;;15.00;99.90;;;;;;4921326;29;20024;-90
2023/07/15 09:33:30;;;;;;;7.13;1.55;;;14.90;99.90;;;;;;4924081;29;20311;-90
2023/07/15 09:35:56;;;;;;;5.70;1.05;;;14.80;99.90;;;;;;4927848;29;20074;-92
2023/07/15 09:38:22;;;;;;;1.55;0.80;;;14.70;99.90;;;;;;4925924;29;20038;-91
2023/07/15 09:40:49;;;;;;;3.13;1.20;;;14.50;99.90;;;;;;4919765;29;20063;-92
2023/07/15 09:43:15;;;;;;;3.17;0.70;;;14.40;99.90;;;;;;4918903;29;20053;-93
2023/07/15 09:45:41;;;;;;;2.38;0.80;;;14.30;99.90;;;;;;4918832;29;20466;-92
2023/07/15 09:48:12;;;;;;;1.83;0.88;;;14.30;99.90;;;;;;4918466;29;20123;-92
2023/07/15 09:50:54;;;;;;;2.85;0.70;;;14.30;99.90;;;;;;4915690;29;20020;-91
2023/07/15 09:53:23;;;;;;;2.40;0.90;;;14.30;99.90;;;;;;4917854;29;20116;-92
2023/07/15 09:55:49;;;;;;;5.57;1.10;;;14.30;99.90;;;;;;4918462;29;20024;-92
2023/07/15 09:58:24;;;;;;;2.63;1.00;;;14.40;99.90;;;;;;4918236;29;20059;-92
2023/07/15 10:01:33;;;;;;;5.22;1.10;;;14.50;99.90;;;;;;4918584;29;20095;-93
2023/07/15 10:04:13;;;;;;;4.72;1.15;;;14.60;99.90;;;;;;4919606;29;20120;-93
2023/07/15 10:06:40;;;;;;;4.20;1.02;;;14.80;99.90;;;;;;4926314;29;20478;-92
2023/07/15 10:09:08;;;;;;;5.00;1.50;;;15.00;99.90;;;;;;4924758;29;20032;-91
2023/07/15 10:11:35;;;;;;;2.58;1.10;;;15.10;99.90;;;;;;4917298;29;20016;-93
2023/07/15 10:14:02;;;;;;;4.28;1.20;;;15.10;99.90;;;;;;4917178;29;20060;-92
2023/07/15 10:16:27;;;;;;;3.47;1.42;;;15.20;99.90;;;;;;4917543;29;20060;-92
2023/07/15 10:18:56;;;;;;;2.97;1.08;;;15.30;99.90;;;;;;4916977;29;20070;-93
2023/07/15 10:21:22;;;;;;;8.20;1.52;;;15.30;99.90;;;;;;4916950;29;20141;-91
2023/07/15 10:23:47;;;;;;;1.40;1.20;;;15.30;99.90;;;;;;4917145;29;20501;-91
2023/07/15 10:26:19;;;;;;;3.05;1.20;;;15.30;99.90;;;;;;4917064;29;20036;-91
2023/07/15 10:28:52;;;;;;;1.58;0.95;;;15.30;99.90;;;;;;4917777;29;20052;-90
2023/07/15 10:31:23;;;;;;;4.55;1.30;;;15.40;99.90;;;;;;4924763;29;20021;-93
2023/07/15 10:33:54;;;;;;;8.20;1.60;;;15.50;99.90;;;;;;4918853;29;20029;-92
2023/07/15 10:36:44;;;;;;;7.65;1.52;;;15.70;99.90;;;;;;4932676;29;20075;-90
2023/07/15 10:39:20;;;;;;;3.90;1.23;;;16.00;99.90;;;;;;4925248;29;20044;-91
2023/07/15 10:41:53;;;;;;;3.22;1.15;;;16.30;99.90;;;;;;4924929;29;20087;-91
2023/07/15 10:44:24;;;;;;;2.97;1.65;;;16.70;99.90;;;;;;4925385;29;20032;-91
2023/07/15 10:47:03;;;;;;;4.07;1.50;;;17.00;99.90;;;;;;4924465;29;20024;-89
2023/07/15 10:49:32;;;;;;;3.78;1.70;;;17.30;99.90;;;;;;4922462;29;20036;-92
2023/07/15 10:51:58;;;;;;;7.63;1.40;;;17.70;99.90;;;;;;4925748;29;20024;-92
2023/07/15 10:54:26;;;;;;;3.35;1.13;;;17.90;99.90;;;;;;4923590;29;20048;-92
2023/07/15 10:56:53;;;;;;;6.82;1.38;;;18.10;99.90;;;;;;4922669;29;20044;-91
2023/07/15 10:59:23;;;;;;;3.20;1.20;;;18.20;99.90;;;;;;4923057;29;20437;-93
2023/07/15 11:01:48;;;;;;;3.92;1.40;;;18.20;99.90;;;;;;4923147;29;20032;-93
2023/07/15 11:04:19;;;;;;;5.13;1.40;;;18.10;99.90;;;;;;4923993;29;20385;-92
2023/07/15 11:06:45;;;;;;;6.22;1.65;;;18.00;99.90;;;;;;4923581;29;20158;-92
2023/07/15 11:09:19;;;;;;;4.47;1.52;;;17.80;99.90;;;;;;4922674;29;20080;-92
2023/07/15 11:11:45;;;;;;;7.53;1.60;;;17.80;99.90;;;;;;4924013;29;20486;-92
2023/07/15 11:14:28;;;;;;;6.20;0.98;;;17.70;99.90;;;;;;4929469;29;20060;-93
2023/07/15 11:16:55;;;;;;;1.75;0.70;;;17.50;99.90;;;;;;4935732;29;20042;-91
2023/07/15 11:19:23;;;;;;;2.78;0.98;;;17.20;99.90;;;;;;4938938;29;20055;-92
2023/07/15 11:21:51;;;;;;;2.47;0.80;;;16.80;99.90;;;;;;4926041;29;20107;-91
2023/07/15 11:24:18;;;;;;;2.92;0.80;;;16.40;99.90;;;;;;4923992;29;20027;-92
2023/07/15 11:26:44;;;;;;;3.22;1.15;;;16.00;99.90;;;;;;4907695;29;20032;-92
2023/07/15 11:29:14;;;;;;;2.35;0.82;;;15.70;99.90;;;;;;4923929;29;20047;-92
2023/07/15 11:31:51;;;;;;;4.05;1.00;;;15.40;99.90;;;;;;4920485;29;20070;-92
2023/07/15 11:34:18;;;;;;;4.10;1.30;;;15.10;99.90;;;;;;4925403;29;20035;-92
2023/07/15 11:36:46;;;;;;;5.22;1.20;;;14.90;99.90;;;;;;4923550;29;20522;-90
2023/07/15 11:39:18;;;;;;;2.33;1.00;;;14.80;99.90;;;;;;4923628;29;20020;-93
2023/07/15 11:41:44;;;;;;;3.55;1.10;;;14.70;99.90;;;;;;4921927;29;20032;-91
2023/07/15 11:44:13;;;;;;;4.95;1.20;;;14.60;99.90;;;;;;4922743;29;20481;-92
2023/07/15 11:46:40;;;;;;;2.92;0.98;;;14.50;99.90;;;;;;4923387;29;20070;-94
2023/07/15 11:49:06;;;;;;;5.50;1.08;;;14.40;99.90;;;;;;4924449;29;20017;-92
2023/07/15 11:51:34;;;;;;;3.42;1.00;;;14.30;99.90;;;;;;4925701;29;20130;-94
2023/07/15 11:54:00;;;;;;;1.98;0.60;;;14.20;99.90;;;;;;4927008;29;20046;-92
2023/07/15 11:56:45;;;;;;;1.42;0.57;;;14.00;99.90;;;;;;4930745;29;20032;-92
2023/07/15 11:59:24;;;;;;;1.50;0.82;;;13.80;99.90;;;;;;4927094;29;20020;-92
2023/07/15 12:01:49;;;;;;;0.45;0.40;;;13.70;99.90;;;;;;4926964;29;20032;-93
2023/07/15 12:04:19;;;;;;;3.25;0.70;;;13.50;99.90;;;;;;4926246;29;20031;-90
2023/07/15 12:06:50;;;;;;;3.08;0.82;;;13.40;99.90;;;;;;4926219;29;20028;-91
2023/07/15 12:09:16;;;;;;;0.60;0.50;;;13.30;99.90;;;;;;4926023;29;20580;-90
2023/07/15 12:11:43;;;;;;;3.15;1.00;;;13.30;99.90;;;;;;4924756;29;20044;-93
2023/07/15 12:14:14;;;;;;;3.30;0.70;;;13.30;99.90;;;;;;4930642;29;20019;-90
2023/07/15 12:16:40;;;;;;;;;;;13.30;99.90;;;;;;4937662;29;20047;-91
2023/07/15 12:19:08;;;;;;;2.03;0.80;;;13.30;99.90;;;;;;4941641;29;19930;-94
2023/07/15 12:21:34;;;;;;;1.50;0.90;;;13.40;99.90;;;;;;4936854;29;20048;-92
2023/07/15 12:24:03;;;;;;;1.00;0.60;;;13.50;99.90;;;;;;4929615;29;20031;-93
2023/07/15 12:26:28;;;;;;;4.68;0.90;;;13.60;99.90;;;;;;4934831;29;20020;-93
2023/07/15 12:28:54;;;;;;;6.22;1.00;;;13.80;99.90;;;;;;4932985;29;20362;-92
2023/07/15 12:31:21;;;;;;;4.82;1.00;;;13.90;99.90;;;;;;4929658;29;20106;-90
2023/07/15 12:33:46;;;;;;;2.83;0.80;;;14.10;99.90;;;;;;4928876;29;20067;-92
2023/07/15 12:36:14;;;;;;;2.65;0.77;;;14.20;99.90;;;;;;4931276;29;20043;-89
2023/07/15 12:38:40;;;;;;;2.75;1.67;;;14.40;99.90;;;;;;4926592;29;20019;-91
2023/07/15 12:41:07;;;;;;;3.22;1.00;;;14.60;99.90;;;;;;4926236;29;20042;-91
2023/07/15 12:43:33;;;;;;;5.18;1.05;;;14.80;99.90;;;;;;4922954;29;20055;-90